Sklinnabanken — LJQM — position and weather

sailwx.info

Track history (hours):
 
Tides and Currents Weather Stations Pressure Air Temp Water Temp Dewpoint Dewpoint Depression Visibility Wind Speed Wind Dir Waves Ship Positions

Sklinnabanken

Last reported at 2017-Jan-18 13:33 UTC. Time now 2017-Jan-18 14:09 UTC.
Position N 69°14' E 017°59'.

Length 28 m; draft 6 m.

Type: Fishing. MMSI: 259648000.

Date/timePositionNaut miles runAvg speedWind from/ knotsBaromVisibWave heightAir tempDewpointWater temp
2017-Jan-18 13:33N 69°14' E 017°59'0 0.0
2017-Jan-18 12:33N 69°14' E 017°59'0 0.0
2017-Jan-18 11:33N 69°14' E 017°59'0 0.0
2017-Jan-18 10:33N 69°14' E 017°59'0 0.0
2017-Jan-18 09:33N 69°14' E 017°59'0 0.0
2017-Jan-18 08:33N 69°14' E 017°59'0 0.0
2017-Jan-18 07:33N 69°14' E 017°59'0 0.0
2017-Jan-18 06:33N 69°14' E 017°59'0 0.0
2017-Jan-18 05:33N 69°14' E 017°59'0 0.0
2017-Jan-18 04:33N 69°14' E 017°59'0 0.0
2017-Jan-18 03:33N 69°14' E 017°59'0 0.0
2017-Jan-18 02:33N 69°14' E 017°59'0 0.0
2017-Jan-18 01:33N 69°14' E 017°59'0 0.0
2017-Jan-18 00:33N 69°14' E 017°59'0 0.0
2017-Jan-17 23:33N 69°14' E 017°59'0 0.0
2017-Jan-17 22:32N 69°14' E 017°59'0 0.0
2017-Jan-17 21:32N 69°14' E 017°59'0 0.0
2017-Jan-17 20:33N 69°14' E 017°59'0 0.1
2017-Jan-17 19:33N 69°14' E 017°59'0 0.0
2017-Jan-17 18:33N 69°14' E 017°59'0 0.0
2017-Jan-17 17:33N 69°14' E 017°59'0 0.0
2017-Jan-17 16:33N 69°14' E 017°59'0 0.0
2017-Jan-17 15:33N 69°14' E 017°59'0 0.0
2017-Jan-17 14:33N 69°14' E 017°59'0 0.0
2017-Jan-17 13:33N 69°14' E 017°59'0 0.0
2017-Jan-17 12:33N 69°14' E 017°59'0 0.0
2017-Jan-17 11:33N 69°14' E 017°59'0 0.0
2017-Jan-17 10:33N 69°14' E 017°59'0 0.0
2017-Jan-17 09:33N 69°14' E 017°59'0 0.0
2017-Jan-17 08:33N 69°14' E 017°59'0 0.0
2017-Jan-17 07:33N 69°14' E 017°59'0 0.0
2017-Jan-17 06:33N 69°14' E 017°59'0 0.0
2017-Jan-17 05:32N 69°14' E 017°59'0 0.0
2017-Jan-17 04:33N 69°14' E 017°59'0 0.0
2017-Jan-17 03:33N 69°14' E 017°59'0 0.0
2017-Jan-17 02:33N 69°14' E 017°59'0 0.0
2017-Jan-17 01:33N 69°14' E 017°59'0 0.0
2017-Jan-17 00:33N 69°14' E 017°59'0 0.0
2017-Jan-16 23:33N 69°14' E 017°59'0 0.0
2017-Jan-16 22:33N 69°14' E 017°59'3 2.8
2017-Jan-16 21:32N 69°12' E 018°01'9 8.8
2017-Jan-16 20:33N 69°08' E 017°39'11 8.7
2017-Jan-16 19:15N 69°00' E 017°15'  
2017-Jan-12 14:16N 68°43' E 016°42'15 8.1
2017-Jan-12 12:25N 68°56' E 017°04'11 8.6
2017-Jan-12 11:07N 69°04' E 017°23'5 8.5
2017-Jan-12 10:33N 69°07' E 017°35'9 8.6
2017-Jan-12 09:33N 69°10' E 017°57'7 7.4
2017-Jan-12 08:33N 69°18' E 017°58'9 0.3
2017-Jan-10 23:33N 69°09' E 017°52'9 8.9
2017-Jan-10 22:33N 69°06' E 017°29'106 8.6
2017-Jan-10 10:09N 67°43' E 014°31'9 9.6
2017-Jan-10 09:11N 67°33' E 014°30'6 9.5
2017-Jan-10 08:33N 67°27' E 014°28'9 9.5
2017-Jan-10 07:33N 67°19' E 014°18'9 9.3
2017-Jan-10 06:33N 67°11' E 014°05'9 9.3
2017-Jan-10 05:33N 67°03' E 013°51'9 9.0
2017-Jan-10 04:33N 66°58' E 013°33'22 7.4
2017-Jan-10 01:33N 66°38' E 013°06'9 8.8
2017-Jan-10 00:33N 66°30' E 012°59'10 9.8
2017-Jan-09 23:32N 66°20' E 012°57'9 9.5
2017-Jan-09 22:33N 66°11' E 012°51'66 8.8
2017-Jan-09 15:05N 65°10' E 011°51'5 9.7
2017-Jan-09 14:33N 65°05' E 011°47'9 9.4
2017-Jan-09 13:33N 64°58' E 011°34'9 9.4
2017-Jan-09 12:33N 64°52' E 011°17'81 9.0
2017-Jan-09 03:31N 63°44' E 009°32'8 8.8
2017-Jan-09 02:33N 63°36' E 009°28'10 9.8
2017-Jan-09 01:33N 63°31' E 009°09'2210.1
2017-Jan-08 23:23N 63°22' E 008°24'910.4
2017-Jan-08 22:33N 63°17' E 008°10'1010.3
2017-Jan-08 21:33N 63°11' E 007°50'1010.1
2017-Jan-08 20:33N 63°06' E 007°31'9 9.4
2017-Jan-08 19:33N 63°02' E 007°12'19 9.4
2017-Jan-08 17:33N 62°50' E 006°40'11 9.6
2017-Jan-08 16:24N 62°41' E 006°27'  
Track history (hours):
 
Tides and Currents Weather Stations Pressure Air Temp Water Temp Dewpoint Dewpoint Depression Visibility Wind Speed Wind Dir Waves Ship Positions

Sklinnabanken

Last reported at 2017-Jan-18 13:33 UTC. Time now 2017-Jan-18 14:09 UTC.
Position N 69°14' E 017°59'.

Length 28 m; draft 6 m.

Type: Fishing. MMSI: 259648000.

Date/timePositionNaut miles runAvg speedWind from/ knotsBaromVisibWave heightAir tempDewpointWater temp
2017-Jan-18 13:33N 69°14' E 017°59'0 0.0
2017-Jan-18 12:33N 69°14' E 017°59'0 0.0
2017-Jan-18 11:33N 69°14' E 017°59'0 0.0
2017-Jan-18 10:33N 69°14' E 017°59'0 0.0
2017-Jan-18 09:33N 69°14' E 017°59'0 0.0
2017-Jan-18 08:33N 69°14' E 017°59'0 0.0
2017-Jan-18 07:33N 69°14' E 017°59'0 0.0
2017-Jan-18 06:33N 69°14' E 017°59'0 0.0
2017-Jan-18 05:33N 69°14' E 017°59'0 0.0
2017-Jan-18 04:33N 69°14' E 017°59'0 0.0
2017-Jan-18 03:33N 69°14' E 017°59'0 0.0
2017-Jan-18 02:33N 69°14' E 017°59'0 0.0
2017-Jan-18 01:33N 69°14' E 017°59'0 0.0
2017-Jan-18 00:33N 69°14' E 017°59'0 0.0
2017-Jan-17 23:33N 69°14' E 017°59'0 0.0
2017-Jan-17 22:32N 69°14' E 017°59'0 0.0
2017-Jan-17 21:32N 69°14' E 017°59'0 0.0
2017-Jan-17 20:33N 69°14' E 017°59'0 0.1
2017-Jan-17 19:33N 69°14' E 017°59'0 0.0
2017-Jan-17 18:33N 69°14' E 017°59'0 0.0
2017-Jan-17 17:33N 69°14' E 017°59'0 0.0
2017-Jan-17 16:33N 69°14' E 017°59'0 0.0
2017-Jan-17 15:33N 69°14' E 017°59'0 0.0
2017-Jan-17 14:33N 69°14' E 017°59'0 0.0
2017-Jan-17 13:33N 69°14' E 017°59'0 0.0
2017-Jan-17 12:33N 69°14' E 017°59'0 0.0
2017-Jan-17 11:33N 69°14' E 017°59'0 0.0
2017-Jan-17 10:33N 69°14' E 017°59'0 0.0
2017-Jan-17 09:33N 69°14' E 017°59'0 0.0
2017-Jan-17 08:33N 69°14' E 017°59'0 0.0
2017-Jan-17 07:33N 69°14' E 017°59'0 0.0
2017-Jan-17 06:33N 69°14' E 017°59'0 0.0
2017-Jan-17 05:32N 69°14' E 017°59'0 0.0
2017-Jan-17 04:33N 69°14' E 017°59'0 0.0
2017-Jan-17 03:33N 69°14' E 017°59'0 0.0
2017-Jan-17 02:33N 69°14' E 017°59'0 0.0
2017-Jan-17 01:33N 69°14' E 017°59'0 0.0
2017-Jan-17 00:33N 69°14' E 017°59'0 0.0
2017-Jan-16 23:33N 69°14' E 017°59'0 0.0
2017-Jan-16 22:33N 69°14' E 017°59'3 2.8
2017-Jan-16 21:32N 69°12' E 018°01'9 8.8
2017-Jan-16 20:33N 69°08' E 017°39'11 8.7
2017-Jan-16 19:15N 69°00' E 017°15'  
2017-Jan-12 14:16N 68°43' E 016°42'15 8.1
2017-Jan-12 12:25N 68°56' E 017°04'11 8.6
2017-Jan-12 11:07N 69°04' E 017°23'5 8.5
2017-Jan-12 10:33N 69°07' E 017°35'9 8.6
2017-Jan-12 09:33N 69°10' E 017°57'7 7.4
2017-Jan-12 08:33N 69°18' E 017°58'9 0.3
2017-Jan-10 23:33N 69°09' E 017°52'9 8.9
2017-Jan-10 22:33N 69°06' E 017°29'106 8.6
2017-Jan-10 10:09N 67°43' E 014°31'9 9.6
2017-Jan-10 09:11N 67°33' E 014°30'6 9.5
2017-Jan-10 08:33N 67°27' E 014°28'9 9.5
2017-Jan-10 07:33N 67°19' E 014°18'9 9.3
2017-Jan-10 06:33N 67°11' E 014°05'9 9.3
2017-Jan-10 05:33N 67°03' E 013°51'9 9.0
2017-Jan-10 04:33N 66°58' E 013°33'22 7.4
2017-Jan-10 01:33N 66°38' E 013°06'9 8.8
2017-Jan-10 00:33N 66°30' E 012°59'10 9.8
2017-Jan-09 23:32N 66°20' E 012°57'9 9.5
2017-Jan-09 22:33N 66°11' E 012°51'66 8.8
2017-Jan-09 15:05N 65°10' E 011°51'5 9.7
2017-Jan-09 14:33N 65°05' E 011°47'9 9.4
2017-Jan-09 13:33N 64°58' E 011°34'9 9.4
2017-Jan-09 12:33N 64°52' E 011°17'81 9.0
2017-Jan-09 03:31N 63°44' E 009°32'8 8.8
2017-Jan-09 02:33N 63°36' E 009°28'10 9.8
2017-Jan-09 01:33N 63°31' E 009°09'2210.1
2017-Jan-08 23:23N 63°22' E 008°24'910.4
2017-Jan-08 22:33N 63°17' E 008°10'1010.3
2017-Jan-08 21:33N 63°11' E 007°50'1010.1
2017-Jan-08 20:33N 63°06' E 007°31'9 9.4
2017-Jan-08 19:33N 63°02' E 007°12'19 9.4
2017-Jan-08 17:33N 62°50' E 006°40'11 9.6
2017-Jan-08 16:24N 62°41' E 006°27'  

Dump ship's entire track history